Weather at Rafaela Airport

Public forecast

Using degrees Celsius for public forecast. Weather courtesy of forecast.io.

Closest aviation weather report (METAR) to Rafaela Airport

Closest report is Rosario Islas Malvinas International Airport, 103.9 nm (192.5 km) SSE.

2024/07/20 06:00 (retrieved 59 minutes ago)

SAAR 200600Z 13007KT 9999 OVC024 10/05 Q1028

Closest aviation forecast (TAF) to Rafaela Airport

Closest forecast is Rosario Islas Malvinas International Airport, 103.9 nm (192.5 km) SSE.

2024/07/20 06:00 (retrieved 59 minutes ago)

TAF SAAR 200500Z 2006/2106 12010KT 9999 SCT020 TX12/2018Z TN06/2010Z TEMPO 2006/2012 9000 -DZ BKN010 BECMG 2012/2014 6000 DZRA BKN010 OVC025 BECMG 2020/2022 9999 NSW SCT030 OVC050